sensor_id;sensor_type;location;lat;lon;timestamp;P1;durP1;ratioP1;P2;durP2;ratioP2
325;SDS011;150;52.352;14.058;2023-02-13T00:02:01;18.77;;;9.93;;
325;SDS011;150;52.352;14.058;2023-02-13T00:04:27;14.70;;;9.52;;
325;SDS011;150;52.352;14.058;2023-02-13T00:06:54;17.50;;;10.40;;
325;SDS011;150;52.352;14.058;2023-02-13T00:09:21;21.30;;;11.75;;
325;SDS011;150;52.352;14.058;2023-02-13T00:11:48;18.95;;;10.20;;
325;SDS011;150;52.352;14.058;2023-02-13T00:14:15;19.38;;;10.02;;
325;SDS011;150;52.352;14.058;2023-02-13T00:16:42;20.00;;;10.50;;
325;SDS011;150;52.352;14.058;2023-02-13T00:19:08;17.05;;;10.63;;
325;SDS011;150;52.352;14.058;2023-02-13T00:21:35;17.17;;;9.13;;
325;SDS011;150;52.352;14.058;2023-02-13T00:24:01;20.27;;;10.32;;
325;SDS011;150;52.352;14.058;2023-02-13T00:26:28;18.88;;;9.82;;
325;SDS011;150;52.352;14.058;2023-02-13T00:28:56;20.92;;;10.95;;
325;SDS011;150;52.352;14.058;2023-02-13T00:31:23;25.17;;;10.30;;
325;SDS011;150;52.352;14.058;2023-02-13T00:33:49;19.73;;;10.60;;
325;SDS011;150;52.352;14.058;2023-02-13T00:36:17;18.30;;;10.63;;
325;SDS011;150;52.352;14.058;2023-02-13T00:38:45;19.63;;;10.82;;
325;SDS011;150;52.352;14.058;2023-02-13T00:41:12;18.42;;;10.73;;
325;SDS011;150;52.352;14.058;2023-02-13T00:43:40;20.60;;;9.73;;
325;SDS011;150;52.352;14.058;2023-02-13T00:46:08;19.85;;;10.30;;
325;SDS011;150;52.352;14.058;2023-02-13T00:48:35;16.87;;;10.17;;
325;SDS011;150;52.352;14.058;2023-02-13T00:51:03;18.23;;;10.50;;
325;SDS011;150;52.352;14.058;2023-02-13T00:53:30;16.85;;;10.43;;
325;SDS011;150;52.352;14.058;2023-02-13T00:55:58;19.95;;;10.32;;
325;SDS011;150;52.352;14.058;2023-02-13T00:58:25;24.45;;;12.40;;
325;SDS011;150;52.352;14.058;2023-02-13T01:00:52;21.20;;;11.02;;
325;SDS011;150;52.352;14.058;2023-02-13T01:03:21;21.70;;;10.80;;
325;SDS011;150;52.352;14.058;2023-02-13T01:05:48;22.88;;;11.13;;
325;SDS011;150;52.352;14.058;2023-02-13T01:08:16;21.20;;;10.23;;
325;SDS011;150;52.352;14.058;2023-02-13T01:10:44;22.83;;;10.48;;
325;SDS011;150;52.352;14.058;2023-02-13T01:13:13;24.05;;;13.73;;
325;SDS011;150;52.352;14.058;2023-02-13T01:15:40;27.02;;;14.77;;
325;SDS011;150;52.352;14.058;2023-02-13T01:18:08;42.30;;;25.80;;
325;SDS011;150;52.352;14.058;2023-02-13T01:20:36;24.10;;;12.93;;
325;SDS011;150;52.352;14.058;2023-02-13T01:23:02;19.70;;;10.95;;
325;SDS011;150;52.352;14.058;2023-02-13T01:25:30;17.63;;;10.00;;
325;SDS011;150;52.352;14.058;2023-02-13T01:27:57;18.85;;;10.20;;
325;SDS011;150;52.352;14.058;2023-02-13T01:30:23;19.45;;;9.85;;
325;SDS011;150;52.352;14.058;2023-02-13T01:32:50;14.47;;;7.93;;
325;SDS011;150;52.352;14.058;2023-02-13T01:35:17;16.13;;;8.77;;
325;SDS011;150;52.352;14.058;2023-02-13T01:37:45;10.95;;;5.72;;
325;SDS011;150;52.352;14.058;2023-02-13T01:40:12;9.13;;;4.78;;
325;SDS011;150;52.352;14.058;2023-02-13T01:42:39;11.30;;;6.57;;
325;SDS011;150;52.352;14.058;2023-02-13T01:45:18;11.95;;;5.85;;
325;SDS011;150;52.352;14.058;2023-02-13T01:47:49;10.95;;;5.63;;
325;SDS011;150;52.352;14.058;2023-02-13T01:50:20;10.18;;;5.68;;
325;SDS011;150;52.352;14.058;2023-02-13T01:52:51;11.60;;;5.35;;
325;SDS011;150;52.352;14.058;2023-02-13T01:55:21;12.98;;;6.88;;
325;SDS011;150;52.352;14.058;2023-02-13T01:57:49;9.15;;;4.70;;
325;SDS011;150;52.352;14.058;2023-02-13T02:00:21;13.90;;;6.35;;
325;SDS011;150;52.352;14.058;2023-02-13T02:02:49;10.48;;;6.07;;
325;SDS011;150;52.352;14.058;2023-02-13T02:05:20;8.95;;;5.07;;
325;SDS011;150;52.352;14.058;2023-02-13T02:07:51;11.85;;;6.10;;
325;SDS011;150;52.352;14.058;2023-02-13T02:10:19;9.77;;;5.22;;
325;SDS011;150;52.352;14.058;2023-02-13T02:12:51;12.38;;;6.32;;
325;SDS011;150;52.352;14.058;2023-02-13T02:15:24;10.57;;;6.00;;
325;SDS011;150;52.352;14.058;2023-02-13T02:17:50;9.45;;;6.18;;
325;SDS011;150;52.352;14.058;2023-02-13T02:20:21;8.93;;;5.22;;
325;SDS011;150;52.352;14.058;2023-02-13T02:23:01;12.37;;;6.90;;
325;SDS011;150;52.352;14.058;2023-02-13T02:34:49;7.27;;;4.93;;
325;SDS011;150;52.352;14.058;2023-02-13T02:37:35;12.27;;;5.40;;
325;SDS011;150;52.352;14.058;2023-02-13T02:40:16;12.90;;;5.18;;
325;SDS011;150;52.352;14.058;2023-02-13T02:42:55;8.32;;;4.60;;
325;SDS011;150;52.352;14.058;2023-02-13T02:45:33;9.93;;;4.75;;
325;SDS011;150;52.352;14.058;2023-02-13T02:48:06;6.60;;;4.07;;
325;SDS011;150;52.352;14.058;2023-02-13T02:51:01;9.57;;;4.40;;
325;SDS011;150;52.352;14.058;2023-02-13T02:53:36;4.75;;;3.53;;
325;SDS011;150;52.352;14.058;2023-02-13T02:56:10;9.95;;;7.40;;
325;SDS011;150;52.352;14.058;2023-02-13T02:58:42;9.43;;;6.10;;
325;SDS011;150;52.352;14.058;2023-02-13T03:01:31;6.07;;;4.40;;
325;SDS011;150;52.352;14.058;2023-02-13T03:04:18;10.32;;;3.50;;
325;SDS011;150;52.352;14.058;2023-02-13T03:07:09;6.25;;;4.22;;
325;SDS011;150;52.352;14.058;2023-02-13T03:09:41;5.55;;;3.92;;
325;SDS011;150;52.352;14.058;2023-02-13T03:12:32;4.32;;;2.50;;
325;SDS011;150;52.352;14.058;2023-02-13T03:15:36;6.60;;;2.90;;
325;SDS011;150;52.352;14.058;2023-02-13T03:18:24;6.07;;;2.88;;
325;SDS011;150;52.352;14.058;2023-02-13T03:21:12;6.30;;;2.30;;
325;SDS011;150;52.352;14.058;2023-02-13T03:24:03;6.20;;;3.00;;
325;SDS011;150;52.352;14.058;2023-02-13T03:26:41;6.30;;;2.70;;
325;SDS011;150;52.352;14.058;2023-02-13T03:29:26;4.35;;;2.80;;
325;SDS011;150;52.352;14.058;2023-02-13T03:32:19;5.15;;;2.38;;
325;SDS011;150;52.352;14.058;2023-02-13T03:34:53;4.00;;;2.60;;
325;SDS011;150;52.352;14.058;2023-02-13T03:37:45;4.90;;;2.70;;
325;SDS011;150;52.352;14.058;2023-02-13T03:40:25;5.03;;;2.30;;
325;SDS011;150;52.352;14.058;2023-02-13T03:43:01;4.60;;;2.50;;
325;SDS011;150;52.352;14.058;2023-02-13T03:45:34;3.90;;;2.50;;
325;SDS011;150;52.352;14.058;2023-02-13T03:48:22;4.10;;;2.60;;
325;SDS011;150;52.352;14.058;2023-02-13T03:51:08;6.43;;;2.10;;
325;SDS011;150;52.352;14.058;2023-02-13T03:53:38;3.60;;;1.90;;
325;SDS011;150;52.352;14.058;2023-02-13T03:56:08;4.07;;;2.47;;
325;SDS011;150;52.352;14.058;2023-02-13T03:58:55;4.10;;;2.20;;
325;SDS011;150;52.352;14.058;2023-02-13T04:01:39;3.58;;;2.00;;
325;SDS011;150;52.352;14.058;2023-02-13T04:04:09;3.45;;;1.92;;
325;SDS011;150;52.352;14.058;2023-02-13T04:06:41;3.80;;;2.65;;
325;SDS011;150;52.352;14.058;2023-02-13T04:09:14;2.53;;;1.57;;
325;SDS011;150;52.352;14.058;2023-02-13T04:11:44;2.97;;;2.10;;
325;SDS011;150;52.352;14.058;2023-02-13T04:14:18;5.20;;;2.00;;
325;SDS011;150;52.352;14.058;2023-02-13T04:16:49;3.40;;;1.63;;
325;SDS011;150;52.352;14.058;2023-02-13T04:19:19;4.43;;;2.20;;
325;SDS011;150;52.352;14.058;2023-02-13T04:21:48;3.50;;;2.20;;
325;SDS011;150;52.352;14.058;2023-02-13T04:24:19;4.05;;;1.92;;
325;SDS011;150;52.352;14.058;2023-02-13T04:26:47;3.58;;;2.30;;
325;SDS011;150;52.352;14.058;2023-02-13T04:29:14;4.60;;;2.35;;
325;SDS011;150;52.352;14.058;2023-02-13T04:31:41;3.47;;;2.20;;
325;SDS011;150;52.352;14.058;2023-02-13T04:34:07;3.83;;;2.10;;
325;SDS011;150;52.352;14.058;2023-02-13T04:36:34;3.10;;;1.70;;
325;SDS011;150;52.352;14.058;2023-02-13T04:39:00;4.27;;;1.63;;
325;SDS011;150;52.352;14.058;2023-02-13T04:41:27;2.95;;;1.88;;
325;SDS011;150;52.352;14.058;2023-02-13T04:43:55;3.83;;;2.30;;
325;SDS011;150;52.352;14.058;2023-02-13T04:46:22;3.60;;;1.63;;
325;SDS011;150;52.352;14.058;2023-02-13T04:48:49;4.15;;;2.20;;
325;SDS011;150;52.352;14.058;2023-02-13T04:51:15;3.65;;;2.20;;
325;SDS011;150;52.352;14.058;2023-02-13T04:53:42;6.40;;;2.50;;
325;SDS011;150;52.352;14.058;2023-02-13T04:56:08;6.13;;;2.60;;
325;SDS011;150;52.352;14.058;2023-02-13T04:58:35;3.10;;;1.63;;
325;SDS011;150;52.352;14.058;2023-02-13T05:01:09;5.10;;;2.60;;
325;SDS011;150;52.352;14.058;2023-02-13T05:03:36;4.00;;;2.05;;
325;SDS011;150;52.352;14.058;2023-02-13T05:06:03;3.95;;;2.20;;
325;SDS011;150;52.352;14.058;2023-02-13T05:08:30;4.23;;;1.97;;
325;SDS011;150;52.352;14.058;2023-02-13T05:10:57;4.60;;;2.58;;
325;SDS011;150;52.352;14.058;2023-02-13T05:13:23;3.42;;;2.10;;
325;SDS011;150;52.352;14.058;2023-02-13T05:15:50;4.97;;;2.42;;
325;SDS011;150;52.352;14.058;2023-02-13T05:18:18;4.88;;;3.10;;
325;SDS011;150;52.352;14.058;2023-02-13T05:20:45;4.18;;;2.53;;
325;SDS011;150;52.352;14.058;2023-02-13T05:23:32;5.85;;;3.85;;
325;SDS011;150;52.352;14.058;2023-02-13T05:25:58;4.30;;;2.73;;
325;SDS011;150;52.352;14.058;2023-02-13T05:28:24;4.13;;;2.60;;
325;SDS011;150;52.352;14.058;2023-02-13T05:31:09;4.57;;;2.80;;
325;SDS011;150;52.352;14.058;2023-02-13T05:33:37;2.28;;;2.05;;
325;SDS011;150;52.352;14.058;2023-02-13T05:36:04;2.67;;;1.92;;
325;SDS011;150;52.352;14.058;2023-02-13T05:38:31;2.80;;;2.00;;
325;SDS011;150;52.352;14.058;2023-02-13T05:40:58;3.45;;;2.33;;
325;SDS011;150;52.352;14.058;2023-02-13T05:43:25;4.22;;;2.80;;
325;SDS011;150;52.352;14.058;2023-02-13T05:45:59;5.03;;;3.30;;
325;SDS011;150;52.352;14.058;2023-02-13T05:48:26;5.10;;;2.67;;
325;SDS011;150;52.352;14.058;2023-02-13T05:50:54;4.53;;;3.37;;
325;SDS011;150;52.352;14.058;2023-02-13T05:53:21;4.40;;;3.45;;
325;SDS011;150;52.352;14.058;2023-02-13T05:55:47;5.30;;;2.70;;
325;SDS011;150;52.352;14.058;2023-02-13T05:58:16;3.80;;;2.97;;
325;SDS011;150;52.352;14.058;2023-02-13T06:00:42;3.90;;;2.40;;
325;SDS011;150;52.352;14.058;2023-02-13T06:03:09;3.72;;;3.00;;
325;SDS011;150;52.352;14.058;2023-02-13T06:05:36;8.32;;;4.50;;
325;SDS011;150;52.352;14.058;2023-02-13T06:08:04;5.30;;;3.73;;
325;SDS011;150;52.352;14.058;2023-02-13T06:10:31;5.40;;;3.22;;
325;SDS011;150;52.352;14.058;2023-02-13T06:12:57;4.65;;;2.80;;
325;SDS011;150;52.352;14.058;2023-02-13T06:15:24;8.23;;;3.33;;
325;SDS011;150;52.352;14.058;2023-02-13T06:17:51;10.32;;;6.47;;
325;SDS011;150;52.352;14.058;2023-02-13T06:20:17;5.30;;;3.67;;
325;SDS011;150;52.352;14.058;2023-02-13T06:22:46;6.10;;;4.45;;
325;SDS011;150;52.352;14.058;2023-02-13T06:25:14;6.10;;;3.90;;
325;SDS011;150;52.352;14.058;2023-02-13T06:27:41;6.35;;;4.10;;
325;SDS011;150;52.352;14.058;2023-02-13T06:30:08;8.50;;;6.40;;
325;SDS011;150;52.352;14.058;2023-02-13T06:32:36;7.77;;;5.10;;
325;SDS011;150;52.352;14.058;2023-02-13T06:35:02;9.93;;;5.18;;
325;SDS011;150;52.352;14.058;2023-02-13T06:37:29;9.77;;;4.67;;
325;SDS011;150;52.352;14.058;2023-02-13T06:39:56;7.53;;;4.28;;
325;SDS011;150;52.352;14.058;2023-02-13T06:42:24;6.35;;;3.85;;
325;SDS011;150;52.352;14.058;2023-02-13T06:44:50;6.40;;;4.70;;
325;SDS011;150;52.352;14.058;2023-02-13T06:47:17;6.77;;;4.20;;
325;SDS011;150;52.352;14.058;2023-02-13T06:49:44;6.68;;;4.45;;
325;SDS011;150;52.352;14.058;2023-02-13T06:52:11;7.55;;;4.90;;
325;SDS011;150;52.352;14.058;2023-02-13T06:54:37;9.48;;;5.93;;
325;SDS011;150;52.352;14.058;2023-02-13T06:57:04;8.73;;;5.65;;
325;SDS011;150;52.352;14.058;2023-02-13T06:59:32;6.17;;;4.77;;
325;SDS011;150;52.352;14.058;2023-02-13T07:01:58;12.15;;;5.40;;
325;SDS011;150;52.352;14.058;2023-02-13T07:04:26;6.55;;;4.10;;
325;SDS011;150;52.352;14.058;2023-02-13T07:06:53;7.25;;;4.70;;
325;SDS011;150;52.352;14.058;2023-02-13T07:09:21;7.35;;;4.28;;
325;SDS011;150;52.352;14.058;2023-02-13T07:11:47;6.82;;;4.47;;
325;SDS011;150;52.352;14.058;2023-02-13T07:14:14;7.18;;;4.40;;
325;SDS011;150;52.352;14.058;2023-02-13T07:16:44;8.97;;;5.33;;
325;SDS011;150;52.352;14.058;2023-02-13T07:19:11;8.00;;;4.68;;
325;SDS011;150;52.352;14.058;2023-02-13T07:21:38;9.77;;;6.05;;
325;SDS011;150;52.352;14.058;2023-02-13T07:24:04;7.80;;;4.25;;
325;SDS011;150;52.352;14.058;2023-02-13T07:26:31;7.60;;;4.38;;
325;SDS011;150;52.352;14.058;2023-02-13T07:29:00;8.02;;;4.88;;
325;SDS011;150;52.352;14.058;2023-02-13T07:31:30;6.65;;;4.13;;
325;SDS011;150;52.352;14.058;2023-02-13T07:33:59;11.25;;;7.75;;
325;SDS011;150;52.352;14.058;2023-02-13T07:36:28;10.88;;;7.05;;
325;SDS011;150;52.352;14.058;2023-02-13T07:38:58;9.15;;;6.30;;
325;SDS011;150;52.352;14.058;2023-02-13T07:41:24;10.00;;;6.30;;
325;SDS011;150;52.352;14.058;2023-02-13T07:43:53;10.20;;;5.43;;
325;SDS011;150;52.352;14.058;2023-02-13T07:46:22;8.73;;;5.53;;
325;SDS011;150;52.352;14.058;2023-02-13T07:48:50;8.70;;;5.72;;
325;SDS011;150;52.352;14.058;2023-02-13T07:51:18;15.77;;;11.70;;
325;SDS011;150;52.352;14.058;2023-02-13T07:53:49;10.75;;;7.05;;
325;SDS011;150;52.352;14.058;2023-02-13T07:56:15;9.98;;;6.10;;
325;SDS011;150;52.352;14.058;2023-02-13T07:58:42;11.88;;;6.20;;
325;SDS011;150;52.352;14.058;2023-02-13T08:01:10;9.95;;;5.30;;
325;SDS011;150;52.352;14.058;2023-02-13T08:03:38;7.68;;;4.90;;
325;SDS011;150;52.352;14.058;2023-02-13T08:06:05;10.77;;;5.57;;
325;SDS011;150;52.352;14.058;2023-02-13T08:08:34;20.77;;;12.60;;
325;SDS011;150;52.352;14.058;2023-02-13T08:11:02;12.05;;;7.90;;
325;SDS011;150;52.352;14.058;2023-02-13T08:13:49;10.20;;;6.50;;
325;SDS011;150;52.352;14.058;2023-02-13T08:16:18;11.13;;;6.50;;
325;SDS011;150;52.352;14.058;2023-02-13T08:18:45;8.45;;;4.82;;
325;SDS011;150;52.352;14.058;2023-02-13T08:21:12;10.65;;;5.82;;
325;SDS011;150;52.352;14.058;2023-02-13T08:23:41;10.27;;;5.93;;
325;SDS011;150;52.352;14.058;2023-02-13T08:26:07;10.15;;;5.60;;
325;SDS011;150;52.352;14.058;2023-02-13T08:28:35;9.70;;;5.63;;
325;SDS011;150;52.352;14.058;2023-02-13T08:31:02;10.77;;;5.72;;
325;SDS011;150;52.352;14.058;2023-02-13T08:33:35;9.10;;;5.60;;
325;SDS011;150;52.352;14.058;2023-02-13T08:36:01;9.20;;;6.07;;
325;SDS011;150;52.352;14.058;2023-02-13T08:38:28;8.20;;;5.53;;
325;SDS011;150;52.352;14.058;2023-02-13T08:40:56;11.20;;;6.10;;
325;SDS011;150;52.352;14.058;2023-02-13T08:43:23;48.63;;;40.20;;
325;SDS011;150;52.352;14.058;2023-02-13T08:45:49;21.25;;;15.48;;
325;SDS011;150;52.352;14.058;2023-02-13T08:48:16;13.23;;;8.23;;
325;SDS011;150;52.352;14.058;2023-02-13T08:50:43;13.75;;;9.27;;
325;SDS011;150;52.352;14.058;2023-02-13T08:53:09;14.25;;;9.05;;
325;SDS011;150;52.352;14.058;2023-02-13T08:55:36;9.65;;;6.72;;
325;SDS011;150;52.352;14.058;2023-02-13T08:58:04;10.15;;;6.40;;
325;SDS011;150;52.352;14.058;2023-02-13T09:00:31;11.50;;;6.43;;
325;SDS011;150;52.352;14.058;2023-02-13T09:03:01;10.10;;;6.60;;
325;SDS011;150;52.352;14.058;2023-02-13T09:05:29;9.30;;;6.30;;
325;SDS011;150;52.352;14.058;2023-02-13T09:07:58;9.10;;;5.85;;
325;SDS011;150;52.352;14.058;2023-02-13T09:10:26;8.60;;;5.30;;
325;SDS011;150;52.352;14.058;2023-02-13T09:12:53;10.00;;;5.63;;
325;SDS011;150;52.352;14.058;2023-02-13T09:15:21;8.55;;;6.05;;
325;SDS011;150;52.352;14.058;2023-02-13T09:17:48;15.93;;;10.50;;
325;SDS011;150;52.352;14.058;2023-02-13T09:20:15;11.27;;;6.90;;
325;SDS011;150;52.352;14.058;2023-02-13T09:22:42;10.07;;;7.00;;
325;SDS011;150;52.352;14.058;2023-02-13T09:25:09;10.32;;;7.13;;
325;SDS011;150;52.352;14.058;2023-02-13T09:27:36;10.07;;;6.63;;
325;SDS011;150;52.352;14.058;2023-02-13T09:30:03;12.93;;;7.38;;
325;SDS011;150;52.352;14.058;2023-02-13T09:32:32;11.30;;;8.52;;
325;SDS011;150;52.352;14.058;2023-02-13T09:34:58;10.40;;;7.10;;
325;SDS011;150;52.352;14.058;2023-02-13T09:37:39;10.63;;;6.65;;
325;SDS011;150;52.352;14.058;2023-02-13T09:40:49;10.68;;;6.72;;
325;SDS011;150;52.352;14.058;2023-02-13T09:44:39;10.98;;;6.85;;
325;SDS011;150;52.352;14.058;2023-02-13T09:47:10;11.55;;;6.10;;
325;SDS011;150;52.352;14.058;2023-02-13T09:49:45;8.65;;;6.30;;
325;SDS011;150;52.352;14.058;2023-02-13T09:52:15;10.10;;;6.25;;
325;SDS011;150;52.352;14.058;2023-02-13T09:54:49;8.80;;;5.95;;
325;SDS011;150;52.352;14.058;2023-02-13T09:57:18;10.43;;;5.50;;
325;SDS011;150;52.352;14.058;2023-02-13T09:59:55;11.70;;;7.40;;
325;SDS011;150;52.352;14.058;2023-02-13T10:02:36;12.88;;;7.40;;
325;SDS011;150;52.352;14.058;2023-02-13T10:05:19;13.35;;;10.10;;
325;SDS011;150;52.352;14.058;2023-02-13T10:07:54;18.40;;;13.00;;
325;SDS011;150;52.352;14.058;2023-02-13T10:10:27;10.52;;;6.93;;
325;SDS011;150;52.352;14.058;2023-02-13T10:13:05;8.85;;;5.60;;
325;SDS011;150;52.352;14.058;2023-02-13T10:15:47;12.40;;;8.88;;
325;SDS011;150;52.352;14.058;2023-02-13T10:18:20;15.30;;;8.13;;
325;SDS011;150;52.352;14.058;2023-02-13T10:20:51;9.55;;;7.15;;
325;SDS011;150;52.352;14.058;2023-02-13T10:23:23;11.13;;;7.25;;
325;SDS011;150;52.352;14.058;2023-02-13T10:25:54;10.80;;;7.32;;
325;SDS011;150;52.352;14.058;2023-02-13T10:28:27;8.75;;;5.78;;
325;SDS011;150;52.352;14.058;2023-02-13T10:30:58;9.10;;;6.05;;
325;SDS011;150;52.352;14.058;2023-02-13T10:33:31;9.60;;;5.75;;
325;SDS011;150;52.352;14.058;2023-02-13T10:36:06;19.02;;;13.75;;
325;SDS011;150;52.352;14.058;2023-02-13T10:38:42;19.95;;;14.93;;
325;SDS011;150;52.352;14.058;2023-02-13T10:41:18;19.40;;;13.87;;
325;SDS011;150;52.352;14.058;2023-02-13T10:43:54;12.60;;;8.88;;
325;SDS011;150;52.352;14.058;2023-02-13T10:46:36;12.88;;;8.70;;
325;SDS011;150;52.352;14.058;2023-02-13T10:49:20;12.57;;;9.70;;
325;SDS011;150;52.352;14.058;2023-02-13T10:52:00;9.20;;;5.80;;
325;SDS011;150;52.352;14.058;2023-02-13T10:54:42;8.65;;;6.13;;
325;SDS011;150;52.352;14.058;2023-02-13T10:57:20;7.70;;;5.03;;
325;SDS011;150;52.352;14.058;2023-02-13T10:59:55;9.45;;;5.47;;
325;SDS011;150;52.352;14.058;2023-02-13T11:02:28;9.48;;;5.50;;
325;SDS011;150;52.352;14.058;2023-02-13T11:04:57;8.68;;;5.55;;
325;SDS011;150;52.352;14.058;2023-02-13T11:07:27;8.30;;;4.83;;
325;SDS011;150;52.352;14.058;2023-02-13T11:09:57;7.80;;;5.22;;
325;SDS011;150;52.352;14.058;2023-02-13T11:12:29;8.73;;;5.88;;
325;SDS011;150;52.352;14.058;2023-02-13T11:14:57;8.82;;;5.75;;
325;SDS011;150;52.352;14.058;2023-02-13T11:17:25;7.73;;;5.37;;
325;SDS011;150;52.352;14.058;2023-02-13T11:19:56;11.90;;;5.82;;
325;SDS011;150;52.352;14.058;2023-02-13T11:22:30;10.32;;;6.15;;
325;SDS011;150;52.352;14.058;2023-02-13T11:25:00;10.23;;;5.57;;
325;SDS011;150;52.352;14.058;2023-02-13T11:27:30;7.63;;;5.22;;
325;SDS011;150;52.352;14.058;2023-02-13T11:29:59;9.98;;;6.75;;
325;SDS011;150;52.352;14.058;2023-02-13T11:32:28;15.70;;;10.70;;
325;SDS011;150;52.352;14.058;2023-02-13T11:34:55;10.00;;;5.57;;
325;SDS011;150;52.352;14.058;2023-02-13T11:37:25;11.15;;;6.22;;
325;SDS011;150;52.352;14.058;2023-02-13T11:39:55;8.82;;;6.13;;
325;SDS011;150;52.352;14.058;2023-02-13T11:42:25;9.85;;;5.57;;
325;SDS011;150;52.352;14.058;2023-02-13T11:44:55;8.73;;;5.70;;
325;SDS011;150;52.352;14.058;2023-02-13T11:47:32;8.45;;;5.75;;
325;SDS011;150;52.352;14.058;2023-02-13T11:50:02;7.75;;;5.65;;
325;SDS011;150;52.352;14.058;2023-02-13T11:52:30;8.60;;;5.32;;
325;SDS011;150;52.352;14.058;2023-02-13T11:55:00;11.15;;;6.63;;
325;SDS011;150;52.352;14.058;2023-02-13T11:57:29;10.88;;;5.95;;
325;SDS011;150;52.352;14.058;2023-02-13T11:59:57;11.90;;;8.68;;
325;SDS011;150;52.352;14.058;2023-02-13T12:02:25;7.88;;;4.90;;
325;SDS011;150;52.352;14.058;2023-02-13T12:04:54;8.35;;;5.65;;
325;SDS011;150;52.352;14.058;2023-02-13T12:07:41;15.23;;;12.07;;
325;SDS011;150;52.352;14.058;2023-02-13T12:10:15;7.07;;;5.22;;
325;SDS011;150;52.352;14.058;2023-02-13T12:12:46;7.25;;;4.40;;
325;SDS011;150;52.352;14.058;2023-02-13T12:15:20;6.18;;;4.50;;
325;SDS011;150;52.352;14.058;2023-02-13T12:18:04;6.45;;;4.47;;
325;SDS011;150;52.352;14.058;2023-02-13T12:20:39;6.70;;;4.20;;
325;SDS011;150;52.352;14.058;2023-02-13T12:23:17;6.22;;;4.63;;
325;SDS011;150;52.352;14.058;2023-02-13T12:25:57;5.70;;;4.63;;
325;SDS011;150;52.352;14.058;2023-02-13T12:28:33;10.18;;;4.40;;
325;SDS011;150;52.352;14.058;2023-02-13T12:31:27;9.25;;;5.70;;
325;SDS011;150;52.352;14.058;2023-02-13T12:34:13;6.18;;;4.55;;
325;SDS011;150;52.352;14.058;2023-02-13T12:36:57;6.75;;;5.28;;
325;SDS011;150;52.352;14.058;2023-02-13T12:39:39;6.40;;;4.70;;
325;SDS011;150;52.352;14.058;2023-02-13T12:42:18;6.50;;;4.75;;
325;SDS011;150;52.352;14.058;2023-02-13T12:45:12;6.65;;;4.75;;
325;SDS011;150;52.352;14.058;2023-02-13T12:47:56;8.32;;;4.20;;
325;SDS011;150;52.352;14.058;2023-02-13T12:50:39;6.03;;;4.50;;
325;SDS011;150;52.352;14.058;2023-02-13T12:53:22;6.18;;;4.35;;
325;SDS011;150;52.352;14.058;2023-02-13T12:56:01;6.93;;;4.10;;
325;SDS011;150;52.352;14.058;2023-02-13T12:58:55;9.50;;;4.65;;
325;SDS011;150;52.352;14.058;2023-02-13T13:01:48;7.13;;;4.60;;
325;SDS011;150;52.352;14.058;2023-02-13T13:04:41;9.65;;;7.22;;
325;SDS011;150;52.352;14.058;2023-02-13T13:07:18;7.22;;;5.25;;
325;SDS011;150;52.352;14.058;2023-02-13T13:09:58;7.00;;;5.20;;
325;SDS011;150;52.352;14.058;2023-02-13T13:12:50;9.13;;;6.10;;
325;SDS011;150;52.352;14.058;2023-02-13T13:15:29;7.18;;;5.22;;
325;SDS011;150;52.352;14.058;2023-02-13T13:18:17;7.72;;;5.30;;
325;SDS011;150;52.352;14.058;2023-02-13T13:20:56;8.77;;;5.15;;
325;SDS011;150;52.352;14.058;2023-02-13T13:23:29;6.47;;;5.03;;
325;SDS011;150;52.352;14.058;2023-02-13T13:26:04;6.57;;;5.20;;
325;SDS011;150;52.352;14.058;2023-02-13T13:28:40;6.45;;;5.00;;
325;SDS011;150;52.352;14.058;2023-02-13T13:31:10;8.50;;;5.70;;
325;SDS011;150;52.352;14.058;2023-02-13T13:33:39;9.07;;;5.80;;
325;SDS011;150;52.352;14.058;2023-02-13T13:36:10;9.00;;;6.10;;
325;SDS011;150;52.352;14.058;2023-02-13T13:38:46;11.20;;;7.07;;
325;SDS011;150;52.352;14.058;2023-02-13T13:41:21;20.52;;;17.65;;
325;SDS011;150;52.352;14.058;2023-02-13T13:43:57;16.20;;;11.93;;
325;SDS011;150;52.352;14.058;2023-02-13T13:46:47;8.85;;;5.88;;
325;SDS011;150;52.352;14.058;2023-02-13T13:49:24;8.82;;;6.18;;
325;SDS011;150;52.352;14.058;2023-02-13T13:52:21;9.93;;;6.57;;
325;SDS011;150;52.352;14.058;2023-02-13T13:54:49;12.60;;;8.40;;
325;SDS011;150;52.352;14.058;2023-02-13T13:57:21;12.85;;;8.52;;
325;SDS011;150;52.352;14.058;2023-02-13T14:00:22;10.73;;;8.02;;
325;SDS011;150;52.352;14.058;2023-02-13T14:03:20;9.68;;;6.35;;
325;SDS011;150;52.352;14.058;2023-02-13T14:05:57;12.73;;;8.48;;
325;SDS011;150;52.352;14.058;2023-02-13T14:11:31;12.75;;;8.90;;
325;SDS011;150;52.352;14.058;2023-02-13T14:14:01;13.20;;;9.00;;
325;SDS011;150;52.352;14.058;2023-02-13T14:16:51;12.45;;;7.13;;
325;SDS011;150;52.352;14.058;2023-02-13T14:19:23;11.90;;;7.72;;
325;SDS011;150;52.352;14.058;2023-02-13T14:21:54;13.07;;;7.60;;
325;SDS011;150;52.352;14.058;2023-02-13T14:24:52;11.85;;;8.20;;
325;SDS011;150;52.352;14.058;2023-02-13T14:27:21;10.45;;;7.40;;
325;SDS011;150;52.352;14.058;2023-02-13T14:29:49;9.68;;;6.15;;
325;SDS011;150;52.352;14.058;2023-02-13T14:32:17;15.50;;;7.82;;
325;SDS011;150;52.352;14.058;2023-02-13T14:34:52;11.85;;;7.18;;
325;SDS011;150;52.352;14.058;2023-02-13T14:37:23;7.90;;;6.07;;
325;SDS011;150;52.352;14.058;2023-02-13T14:42:56;12.52;;;9.15;;
325;SDS011;150;52.352;14.058;2023-02-13T14:45:27;22.20;;;12.82;;
325;SDS011;150;52.352;14.058;2023-02-13T14:47:57;14.55;;;9.00;;
325;SDS011;150;52.352;14.058;2023-02-13T14:50:33;13.90;;;8.00;;
325;SDS011;150;52.352;14.058;2023-02-13T14:53:15;13.10;;;7.70;;
325;SDS011;150;52.352;14.058;2023-02-13T14:55:47;14.30;;;7.90;;
325;SDS011;150;52.352;14.058;2023-02-13T14:58:19;12.15;;;8.40;;
325;SDS011;150;52.352;14.058;2023-02-13T15:00:51;12.05;;;8.18;;
325;SDS011;150;52.352;14.058;2023-02-13T15:03:26;11.27;;;6.82;;
325;SDS011;150;52.352;14.058;2023-02-13T15:05:58;10.13;;;7.25;;
325;SDS011;150;52.352;14.058;2023-02-13T15:08:28;15.13;;;8.30;;
325;SDS011;150;52.352;14.058;2023-02-13T15:10:59;12.80;;;7.55;;
325;SDS011;150;52.352;14.058;2023-02-13T15:13:30;12.82;;;8.00;;
325;SDS011;150;52.352;14.058;2023-02-13T15:15:59;13.80;;;10.13;;
325;SDS011;150;52.352;14.058;2023-02-13T15:18:30;16.58;;;9.68;;
325;SDS011;150;52.352;14.058;2023-02-13T15:21:03;14.02;;;8.00;;
325;SDS011;150;52.352;14.058;2023-02-13T15:23:30;14.65;;;9.73;;
325;SDS011;150;52.352;14.058;2023-02-13T15:25:59;16.90;;;11.32;;
325;SDS011;150;52.352;14.058;2023-02-13T15:28:27;13.30;;;8.47;;
325;SDS011;150;52.352;14.058;2023-02-13T15:30:56;13.88;;;8.70;;
325;SDS011;150;52.352;14.058;2023-02-13T15:33:26;16.55;;;8.82;;
325;SDS011;150;52.352;14.058;2023-02-13T15:35:55;11.90;;;7.43;;
325;SDS011;150;52.352;14.058;2023-02-13T15:38:26;13.90;;;8.77;;
325;SDS011;150;52.352;14.058;2023-02-13T15:40:54;10.63;;;7.25;;
325;SDS011;150;52.352;14.058;2023-02-13T15:43:25;14.18;;;7.82;;
325;SDS011;150;52.352;14.058;2023-02-13T15:45:59;13.98;;;7.20;;
325;SDS011;150;52.352;14.058;2023-02-13T15:48:29;14.48;;;8.75;;
325;SDS011;150;52.352;14.058;2023-02-13T15:50:58;14.68;;;8.70;;
325;SDS011;150;52.352;14.058;2023-02-13T15:53:28;12.88;;;8.35;;
325;SDS011;150;52.352;14.058;2023-02-13T15:55:56;12.18;;;7.22;;
325;SDS011;150;52.352;14.058;2023-02-13T15:58:25;14.15;;;8.45;;
325;SDS011;150;52.352;14.058;2023-02-13T16:00:55;23.63;;;15.65;;
325;SDS011;150;52.352;14.058;2023-02-13T16:03:24;13.25;;;8.73;;
325;SDS011;150;52.352;14.058;2023-02-13T16:05:52;16.38;;;9.20;;
325;SDS011;150;52.352;14.058;2023-02-13T16:08:24;13.98;;;8.68;;
325;SDS011;150;52.352;14.058;2023-02-13T16:13:56;13.13;;;9.25;;